sensor_id;sensor_type;location;lat;lon;timestamp;temperature;humidity
37984;DHT22;61733;50.882;4.376;2022-09-09T00:00:46;15.50;99.90
37984;DHT22;61733;50.882;4.376;2022-09-09T00:03:17;15.50;99.90
37984;DHT22;61733;50.882;4.376;2022-09-09T00:11:47;15.50;99.90
37984;DHT22;61733;50.882;4.376;2022-09-09T00:17:12;15.60;99.90
37984;DHT22;61733;50.882;4.376;2022-09-09T00:22:23;15.60;99.90
37984;DHT22;61733;50.882;4.376;2022-09-09T00:24:54;15.60;99.90
37984;DHT22;61733;50.882;4.376;2022-09-09T00:27:30;15.60;99.90
37984;DHT22;61733;50.882;4.376;2022-09-09T00:32:58;15.60;99.90
37984;DHT22;61733;50.882;4.376;2022-09-09T00:35:29;15.60;99.90
37984;DHT22;61733;50.882;4.376;2022-09-09T00:38:03;15.60;99.90
37984;DHT22;61733;50.882;4.376;2022-09-09T00:40:39;15.60;99.90
37984;DHT22;61733;50.882;4.376;2022-09-09T00:51:48;15.70;99.90
37984;DHT22;61733;50.882;4.376;2022-09-09T00:57:23;15.70;99.90
37984;DHT22;61733;50.882;4.376;2022-09-09T01:08:47;15.70;99.90
37984;DHT22;61733;50.882;4.376;2022-09-09T01:22:40;15.70;99.90
37984;DHT22;61733;50.882;4.376;2022-09-09T01:28:17;15.70;99.90
37984;DHT22;61733;50.882;4.376;2022-09-09T01:30:45;15.70;99.90
37984;DHT22;61733;50.882;4.376;2022-09-09T01:33:16;15.70;99.90
37984;DHT22;61733;50.882;4.376;2022-09-09T01:35:50;15.70;99.90
37984;DHT22;61733;50.882;4.376;2022-09-09T01:38:20;15.80;99.90
37984;DHT22;61733;50.882;4.376;2022-09-09T01:40:47;15.70;99.90
37984;DHT22;61733;50.882;4.376;2022-09-09T01:43:13;15.70;99.90
37984;DHT22;61733;50.882;4.376;2022-09-09T01:45:41;15.80;99.90
37984;DHT22;61733;50.882;4.376;2022-09-09T01:48:09;15.80;99.90
37984;DHT22;61733;50.882;4.376;2022-09-09T01:50:34;15.80;99.90
37984;DHT22;61733;50.882;4.376;2022-09-09T01:53:01;15.80;99.90
37984;DHT22;61733;50.882;4.376;2022-09-09T01:55:39;15.80;99.90
37984;DHT22;61733;50.882;4.376;2022-09-09T01:58:17;15.90;99.90
37984;DHT22;61733;50.882;4.376;2022-09-09T02:03:36;15.90;99.90
37984;DHT22;61733;50.882;4.376;2022-09-09T02:09:04;15.90;99.90
37984;DHT22;61733;50.882;4.376;2022-09-09T02:11:32;15.90;99.90
37984;DHT22;61733;50.882;4.376;2022-09-09T02:14:05;15.90;99.90
37984;DHT22;61733;50.882;4.376;2022-09-09T02:17:09;15.90;99.90
37984;DHT22;61733;50.882;4.376;2022-09-09T02:19:44;15.90;99.90
37984;DHT22;61733;50.882;4.376;2022-09-09T02:22:11;15.90;99.90
37984;DHT22;61733;50.882;4.376;2022-09-09T02:24:39;15.90;99.90
37984;DHT22;61733;50.882;4.376;2022-09-09T02:27:08;15.90;99.90
37984;DHT22;61733;50.882;4.376;2022-09-09T02:29:38;15.90;99.90
37984;DHT22;61733;50.882;4.376;2022-09-09T02:32:20;15.90;99.90
37984;DHT22;61733;50.882;4.376;2022-09-09T02:34:50;15.90;99.90
37984;DHT22;61733;50.882;4.376;2022-09-09T02:37:31;16.00;99.90
37984;DHT22;61733;50.882;4.376;2022-09-09T02:40:05;16.00;99.90
37984;DHT22;61733;50.882;4.376;2022-09-09T02:42:32;16.00;99.90
37984;DHT22;61733;50.882;4.376;2022-09-09T02:44:58;16.00;99.90
37984;DHT22;61733;50.882;4.376;2022-09-09T02:55:29;16.00;99.90
37984;DHT22;61733;50.882;4.376;2022-09-09T02:57:59;16.00;99.90
37984;DHT22;61733;50.882;4.376;2022-09-09T03:00:27;16.00;99.90
37984;DHT22;61733;50.882;4.376;2022-09-09T03:02:54;16.00;99.90
37984;DHT22;61733;50.882;4.376;2022-09-09T03:05:20;16.00;99.90
37984;DHT22;61733;50.882;4.376;2022-09-09T03:07:46;16.10;99.90
37984;DHT22;61733;50.882;4.376;2022-09-09T03:10:12;16.00;99.90
37984;DHT22;61733;50.882;4.376;2022-09-09T03:12:39;16.00;99.90
37984;DHT22;61733;50.882;4.376;2022-09-09T03:15:06;16.00;99.90
37984;DHT22;61733;50.882;4.376;2022-09-09T03:17:32;16.00;99.90
37984;DHT22;61733;50.882;4.376;2022-09-09T03:19:57;16.00;99.90
37984;DHT22;61733;50.882;4.376;2022-09-09T03:22:24;16.10;99.90
37984;DHT22;61733;50.882;4.376;2022-09-09T03:24:51;16.10;99.90
37984;DHT22;61733;50.882;4.376;2022-09-09T03:27:17;16.10;99.90
37984;DHT22;61733;50.882;4.376;2022-09-09T03:29:45;16.10;99.90
37984;DHT22;61733;50.882;4.376;2022-09-09T03:32:11;16.10;99.90
37984;DHT22;61733;50.882;4.376;2022-09-09T03:34:39;16.00;99.90
37984;DHT22;61733;50.882;4.376;2022-09-09T03:37:06;16.00;99.90
37984;DHT22;61733;50.882;4.376;2022-09-09T03:39:31;16.00;99.90
37984;DHT22;61733;50.882;4.376;2022-09-09T03:41:57;16.00;99.90
37984;DHT22;61733;50.882;4.376;2022-09-09T03:44:23;16.00;99.90
37984;DHT22;61733;50.882;4.376;2022-09-09T03:46:49;16.00;99.90
37984;DHT22;61733;50.882;4.376;2022-09-09T03:49:14;16.00;99.90
37984;DHT22;61733;50.882;4.376;2022-09-09T03:51:41;16.00;99.90
37984;DHT22;61733;50.882;4.376;2022-09-09T03:54:08;16.00;99.90
37984;DHT22;61733;50.882;4.376;2022-09-09T03:56:36;16.00;99.90
37984;DHT22;61733;50.882;4.376;2022-09-09T03:59:03;16.00;99.90
37984;DHT22;61733;50.882;4.376;2022-09-09T04:01:29;16.00;99.90
37984;DHT22;61733;50.882;4.376;2022-09-09T04:03:55;16.00;99.90
37984;DHT22;61733;50.882;4.376;2022-09-09T04:06:23;16.00;99.90
37984;DHT22;61733;50.882;4.376;2022-09-09T04:08:50;16.00;99.90
37984;DHT22;61733;50.882;4.376;2022-09-09T04:11:17;16.00;99.90
37984;DHT22;61733;50.882;4.376;2022-09-09T04:13:44;16.00;99.90
37984;DHT22;61733;50.882;4.376;2022-09-09T04:16:11;16.00;99.90
37984;DHT22;61733;50.882;4.376;2022-09-09T04:18:39;16.00;99.90
37984;DHT22;61733;50.882;4.376;2022-09-09T04:21:05;16.00;99.90
37984;DHT22;61733;50.882;4.376;2022-09-09T04:23:31;16.10;99.90
37984;DHT22;61733;50.882;4.376;2022-09-09T04:26:00;16.10;99.90
37984;DHT22;61733;50.882;4.376;2022-09-09T04:28:29;16.10;99.90
37984;DHT22;61733;50.882;4.376;2022-09-09T04:30:56;16.10;99.90
37984;DHT22;61733;50.882;4.376;2022-09-09T04:33:25;16.10;99.90
37984;DHT22;61733;50.882;4.376;2022-09-09T04:35:53;16.10;99.90
37984;DHT22;61733;50.882;4.376;2022-09-09T04:38:19;16.10;99.90
37984;DHT22;61733;50.882;4.376;2022-09-09T04:40:50;16.10;99.90
37984;DHT22;61733;50.882;4.376;2022-09-09T04:43:17;16.10;99.90
37984;DHT22;61733;50.882;4.376;2022-09-09T04:45:47;16.10;99.90
37984;DHT22;61733;50.882;4.376;2022-09-09T04:48:13;16.10;99.90
37984;DHT22;61733;50.882;4.376;2022-09-09T04:50:39;16.10;99.90
37984;DHT22;61733;50.882;4.376;2022-09-09T04:53:06;16.10;99.90
37984;DHT22;61733;50.882;4.376;2022-09-09T04:55:32;16.10;99.90
37984;DHT22;61733;50.882;4.376;2022-09-09T04:58:07;16.10;99.90
37984;DHT22;61733;50.882;4.376;2022-09-09T05:00:34;16.10;99.90
37984;DHT22;61733;50.882;4.376;2022-09-09T05:03:05;16.10;99.90
37984;DHT22;61733;50.882;4.376;2022-09-09T05:05:32;16.10;99.90
37984;DHT22;61733;50.882;4.376;2022-09-09T05:08:04;16.10;99.90
37984;DHT22;61733;50.882;4.376;2022-09-09T05:10:31;16.10;99.90
37984;DHT22;61733;50.882;4.376;2022-09-09T05:12:57;16.10;99.90
37984;DHT22;61733;50.882;4.376;2022-09-09T05:15:23;16.10;99.90
37984;DHT22;61733;50.882;4.376;2022-09-09T05:17:49;16.00;99.90
37984;DHT22;61733;50.882;4.376;2022-09-09T05:20:15;16.00;99.90
37984;DHT22;61733;50.882;4.376;2022-09-09T05:22:41;16.00;99.90
37984;DHT22;61733;50.882;4.376;2022-09-09T05:25:07;16.00;99.90
37984;DHT22;61733;50.882;4.376;2022-09-09T05:27:36;16.00;99.90
37984;DHT22;61733;50.882;4.376;2022-09-09T05:30:03;16.10;99.90
37984;DHT22;61733;50.882;4.376;2022-09-09T05:32:30;16.10;99.90
37984;DHT22;61733;50.882;4.376;2022-09-09T05:34:59;16.10;99.90
37984;DHT22;61733;50.882;4.376;2022-09-09T05:37:25;16.10;99.90
37984;DHT22;61733;50.882;4.376;2022-09-09T05:39:51;16.10;99.90
37984;DHT22;61733;50.882;4.376;2022-09-09T05:42:17;16.20;99.90
37984;DHT22;61733;50.882;4.376;2022-09-09T05:44:43;16.20;99.90
37984;DHT22;61733;50.882;4.376;2022-09-09T05:47:10;16.10;99.90
37984;DHT22;61733;50.882;4.376;2022-09-09T05:49:37;16.20;99.90
37984;DHT22;61733;50.882;4.376;2022-09-09T05:52:03;16.20;99.90
37984;DHT22;61733;50.882;4.376;2022-09-09T05:54:29;16.20;99.90
37984;DHT22;61733;50.882;4.376;2022-09-09T05:56:55;16.20;99.90
37984;DHT22;61733;50.882;4.376;2022-09-09T05:59:21;16.30;99.90
37984;DHT22;61733;50.882;4.376;2022-09-09T06:01:49;16.30;99.90
37984;DHT22;61733;50.882;4.376;2022-09-09T06:04:15;16.20;99.90
37984;DHT22;61733;50.882;4.376;2022-09-09T06:06:41;16.30;99.90
37984;DHT22;61733;50.882;4.376;2022-09-09T06:09:08;16.30;99.90
37984;DHT22;61733;50.882;4.376;2022-09-09T06:11:39;16.30;99.90
37984;DHT22;61733;50.882;4.376;2022-09-09T06:14:05;16.30;99.90
37984;DHT22;61733;50.882;4.376;2022-09-09T06:16:32;16.30;99.90
37984;DHT22;61733;50.882;4.376;2022-09-09T06:19:01;16.30;99.90
37984;DHT22;61733;50.882;4.376;2022-09-09T06:21:34;16.40;99.90
37984;DHT22;61733;50.882;4.376;2022-09-09T06:24:01;16.40;99.90
37984;DHT22;61733;50.882;4.376;2022-09-09T06:26:30;16.40;99.90
37984;DHT22;61733;50.882;4.376;2022-09-09T06:28:56;16.50;99.90
37984;DHT22;61733;50.882;4.376;2022-09-09T06:31:27;16.50;99.90
37984;DHT22;61733;50.882;4.376;2022-09-09T06:33:57;16.60;99.90
37984;DHT22;61733;50.882;4.376;2022-09-09T06:36:27;16.60;99.90
37984;DHT22;61733;50.882;4.376;2022-09-09T06:38:54;16.60;99.90
37984;DHT22;61733;50.882;4.376;2022-09-09T06:41:21;16.60;99.90
37984;DHT22;61733;50.882;4.376;2022-09-09T06:43:49;16.60;99.90
37984;DHT22;61733;50.882;4.376;2022-09-09T06:46:17;16.70;99.90
37984;DHT22;61733;50.882;4.376;2022-09-09T06:48:44;16.70;99.90
37984;DHT22;61733;50.882;4.376;2022-09-09T06:51:13;16.70;99.90
37984;DHT22;61733;50.882;4.376;2022-09-09T06:53:41;16.70;99.90
37984;DHT22;61733;50.882;4.376;2022-09-09T06:58:42;16.80;99.90
37984;DHT22;61733;50.882;4.376;2022-09-09T07:01:19;16.70;99.90
37984;DHT22;61733;50.882;4.376;2022-09-09T07:03:50;16.80;99.90
37984;DHT22;61733;50.882;4.376;2022-09-09T07:06:23;16.80;99.90
37984;DHT22;61733;50.882;4.376;2022-09-09T07:08:56;16.80;99.90
37984;DHT22;61733;50.882;4.376;2022-09-09T07:11:23;16.80;99.90
37984;DHT22;61733;50.882;4.376;2022-09-09T07:13:49;16.90;99.90
37984;DHT22;61733;50.882;4.376;2022-09-09T07:16:17;16.90;99.90
37984;DHT22;61733;50.882;4.376;2022-09-09T07:18:44;16.90;99.90
37984;DHT22;61733;50.882;4.376;2022-09-09T07:21:11;17.00;99.90
37984;DHT22;61733;50.882;4.376;2022-09-09T07:23:40;17.00;99.90
37984;DHT22;61733;50.882;4.376;2022-09-09T07:26:11;17.10;99.90
37984;DHT22;61733;50.882;4.376;2022-09-09T07:28:37;17.10;99.90
37984;DHT22;61733;50.882;4.376;2022-09-09T07:31:04;17.10;99.90
37984;DHT22;61733;50.882;4.376;2022-09-09T07:33:32;17.10;99.90
37984;DHT22;61733;50.882;4.376;2022-09-09T07:36:04;17.20;99.90
37984;DHT22;61733;50.882;4.376;2022-09-09T07:38:31;17.20;99.90
37984;DHT22;61733;50.882;4.376;2022-09-09T07:41:07;17.20;99.90
37984;DHT22;61733;50.882;4.376;2022-09-09T07:43:38;17.30;99.90
37984;DHT22;61733;50.882;4.376;2022-09-09T07:46:05;17.30;99.90
37984;DHT22;61733;50.882;4.376;2022-09-09T07:48:31;17.30;99.90
37984;DHT22;61733;50.882;4.376;2022-09-09T07:51:16;17.20;99.90
37984;DHT22;61733;50.882;4.376;2022-09-09T07:53:44;17.20;99.90
37984;DHT22;61733;50.882;4.376;2022-09-09T07:56:12;17.20;99.90
37984;DHT22;61733;50.882;4.376;2022-09-09T07:58:44;17.20;99.90
37984;DHT22;61733;50.882;4.376;2022-09-09T08:01:37;17.20;99.90
37984;DHT22;61733;50.882;4.376;2022-09-09T08:04:10;17.30;99.90
37984;DHT22;61733;50.882;4.376;2022-09-09T08:06:55;17.30;99.90
37984;DHT22;61733;50.882;4.376;2022-09-09T08:09:21;17.30;99.90
37984;DHT22;61733;50.882;4.376;2022-09-09T08:11:50;17.40;99.90
37984;DHT22;61733;50.882;4.376;2022-09-09T08:14:16;17.40;99.90
37984;DHT22;61733;50.882;4.376;2022-09-09T08:16:45;17.40;99.90
37984;DHT22;61733;50.882;4.376;2022-09-09T08:19:11;17.50;99.90
37984;DHT22;61733;50.882;4.376;2022-09-09T08:21:39;17.50;99.90
37984;DHT22;61733;50.882;4.376;2022-09-09T08:24:06;17.60;99.90
37984;DHT22;61733;50.882;4.376;2022-09-09T08:26:35;17.60;99.90
37984;DHT22;61733;50.882;4.376;2022-09-09T08:29:04;17.60;99.90
37984;DHT22;61733;50.882;4.376;2022-09-09T08:31:36;17.70;99.90
37984;DHT22;61733;50.882;4.376;2022-09-09T08:34:03;17.70;99.90
37984;DHT22;61733;50.882;4.376;2022-09-09T08:36:31;17.70;99.90
37984;DHT22;61733;50.882;4.376;2022-09-09T08:38:59;17.70;99.90
37984;DHT22;61733;50.882;4.376;2022-09-09T08:49:44;17.80;99.90
37984;DHT22;61733;50.882;4.376;2022-09-09T08:52:25;17.80;99.90
37984;DHT22;61733;50.882;4.376;2022-09-09T08:55:09;17.80;99.90
37984;DHT22;61733;50.882;4.376;2022-09-09T08:57:41;17.70;99.90
37984;DHT22;61733;50.882;4.376;2022-09-09T09:00:10;17.70;99.90
37984;DHT22;61733;50.882;4.376;2022-09-09T09:05:32;17.70;99.90
37984;DHT22;61733;50.882;4.376;2022-09-09T09:10:47;17.70;99.90
37984;DHT22;61733;50.882;4.376;2022-09-09T09:13:34;17.70;99.90
37984;DHT22;61733;50.882;4.376;2022-09-09T09:16:33;17.70;99.90
37984;DHT22;61733;50.882;4.376;2022-09-09T09:19:00;17.70;99.90
37984;DHT22;61733;50.882;4.376;2022-09-09T09:21:44;17.60;99.90
37984;DHT22;61733;50.882;4.376;2022-09-09T09:27:49;17.70;99.90
37984;DHT22;61733;50.882;4.376;2022-09-09T09:29:55;17.70;99.90
37984;DHT22;61733;50.882;4.376;2022-09-09T09:32:24;17.70;99.90
37984;DHT22;61733;50.882;4.376;2022-09-09T09:34:57;17.70;99.90
37984;DHT22;61733;50.882;4.376;2022-09-09T09:37:32;17.70;99.90
37984;DHT22;61733;50.882;4.376;2022-09-09T09:40:19;17.70;99.90
37984;DHT22;61733;50.882;4.376;2022-09-09T09:43:02;17.70;99.90
37984;DHT22;61733;50.882;4.376;2022-09-09T09:48:01;17.70;99.90
37984;DHT22;61733;50.882;4.376;2022-09-09T09:50:28;17.60;99.90
37984;DHT22;61733;50.882;4.376;2022-09-09T09:52:59;17.60;99.90
37984;DHT22;61733;50.882;4.376;2022-09-09T09:55:25;17.60;99.90
37984;DHT22;61733;50.882;4.376;2022-09-09T09:57:52;17.60;99.90
37984;DHT22;61733;50.882;4.376;2022-09-09T10:00:19;17.60;99.90
37984;DHT22;61733;50.882;4.376;2022-09-09T10:02:46;17.50;99.90
37984;DHT22;61733;50.882;4.376;2022-09-09T10:05:14;17.60;99.90
37984;DHT22;61733;50.882;4.376;2022-09-09T10:07:41;17.60;99.90
37984;DHT22;61733;50.882;4.376;2022-09-09T10:10:15;17.60;99.90
37984;DHT22;61733;50.882;4.376;2022-09-09T10:12:55;17.50;99.90
37984;DHT22;61733;50.882;4.376;2022-09-09T10:21:24;17.70;99.90
37984;DHT22;61733;50.882;4.376;2022-09-09T10:32:51;17.80;99.90
37984;DHT22;61733;50.882;4.376;2022-09-09T10:55:52;18.40;99.90
37984;DHT22;61733;50.882;4.376;2022-09-09T10:58:33;18.50;99.90
37984;DHT22;61733;50.882;4.376;2022-09-09T11:01:11;18.60;99.90
37984;DHT22;61733;50.882;4.376;2022-09-09T11:03:40;18.70;99.90
37984;DHT22;61733;50.882;4.376;2022-09-09T11:06:14;18.70;99.90
37984;DHT22;61733;50.882;4.376;2022-09-09T11:08:40;18.80;99.90
37984;DHT22;61733;50.882;4.376;2022-09-09T11:11:29;18.90;99.90
37984;DHT22;61733;50.882;4.376;2022-09-09T11:16:49;19.00;99.90
37984;DHT22;61733;50.882;4.376;2022-09-09T11:21:58;19.10;99.90
37984;DHT22;61733;50.882;4.376;2022-09-09T11:24:41;19.10;99.90
37984;DHT22;61733;50.882;4.376;2022-09-09T11:39:02;19.20;99.90
37984;DHT22;61733;50.882;4.376;2022-09-09T11:41:36;19.20;99.90
37984;DHT22;61733;50.882;4.376;2022-09-09T11:44:17;19.20;99.90
37984;DHT22;61733;50.882;4.376;2022-09-09T11:46:46;19.30;99.90
37984;DHT22;61733;50.882;4.376;2022-09-09T11:49:42;19.20;99.90
37984;DHT22;61733;50.882;4.376;2022-09-09T11:54:48;19.30;99.90
37984;DHT22;61733;50.882;4.376;2022-09-09T11:59:53;19.30;99.90
37984;DHT22;61733;50.882;4.376;2022-09-09T12:02:28;19.30;99.90
37984;DHT22;61733;50.882;4.376;2022-09-09T12:07:45;19.40;99.90
37984;DHT22;61733;50.882;4.376;2022-09-09T12:10:38;19.40;99.90
37984;DHT22;61733;50.882;4.376;2022-09-09T12:13:28;19.40;99.90
37984;DHT22;61733;50.882;4.376;2022-09-09T12:16:40;19.40;99.90
37984;DHT22;61733;50.882;4.376;2022-09-09T12:19:23;19.40;99.90
37984;DHT22;61733;50.882;4.376;2022-09-09T12:22:03;19.40;99.90
37984;DHT22;61733;50.882;4.376;2022-09-09T12:24:49;19.40;99.90
37984;DHT22;61733;50.882;4.376;2022-09-09T12:27:41;19.40;99.90
37984;DHT22;61733;50.882;4.376;2022-09-09T12:30:14;19.40;99.90
37984;DHT22;61733;50.882;4.376;2022-09-09T12:32:41;19.40;99.90
37984;DHT22;61733;50.882;4.376;2022-09-09T12:35:24;19.40;99.90
37984;DHT22;61733;50.882;4.376;2022-09-09T12:37:58;19.40;99.90
37984;DHT22;61733;50.882;4.376;2022-09-09T12:40:29;19.40;99.90
37984;DHT22;61733;50.882;4.376;2022-09-09T12:43:22;19.40;99.90
37984;DHT22;61733;50.882;4.376;2022-09-09T12:45:58;19.40;99.90
37984;DHT22;61733;50.882;4.376;2022-09-09T12:48:36;19.50;99.90
37984;DHT22;61733;50.882;4.376;2022-09-09T12:51:04;19.50;99.90
37984;DHT22;61733;50.882;4.376;2022-09-09T12:53:34;19.50;99.90
37984;DHT22;61733;50.882;4.376;2022-09-09T12:56:06;19.60;99.90
37984;DHT22;61733;50.882;4.376;2022-09-09T12:58:38;19.60;99.90
37984;DHT22;61733;50.882;4.376;2022-09-09T13:01:06;19.70;99.90
37984;DHT22;61733;50.882;4.376;2022-09-09T13:03:43;19.70;99.90
37984;DHT22;61733;50.882;4.376;2022-09-09T13:06:18;19.80;99.90
37984;DHT22;61733;50.882;4.376;2022-09-09T13:08:44;19.80;99.90
37984;DHT22;61733;50.882;4.376;2022-09-09T13:11:14;19.90;99.90
37984;DHT22;61733;50.882;4.376;2022-09-09T13:13:43;19.90;99.90
37984;DHT22;61733;50.882;4.376;2022-09-09T13:16:33;19.90;99.90
37984;DHT22;61733;50.882;4.376;2022-09-09T13:19:07;19.90;99.90
37984;DHT22;61733;50.882;4.376;2022-09-09T13:21:35;20.00;99.90
37984;DHT22;61733;50.882;4.376;2022-09-09T13:24:02;20.00;99.90
37984;DHT22;61733;50.882;4.376;2022-09-09T13:26:29;20.00;99.90
37984;DHT22;61733;50.882;4.376;2022-09-09T13:29:18;20.00;99.90
37984;DHT22;61733;50.882;4.376;2022-09-09T13:31:48;20.10;99.90
37984;DHT22;61733;50.882;4.376;2022-09-09T13:34:33;20.10;99.90
37984;DHT22;61733;50.882;4.376;2022-09-09T13:37:06;20.20;99.90
37984;DHT22;61733;50.882;4.376;2022-09-09T13:39:37;20.20;99.90
37984;DHT22;61733;50.882;4.376;2022-09-09T13:42:19;20.30;99.90
37984;DHT22;61733;50.882;4.376;2022-09-09T13:44:54;20.30;99.90
37984;DHT22;61733;50.882;4.376;2022-09-09T13:47:35;20.40;99.90
37984;DHT22;61733;50.882;4.376;2022-09-09T13:50:27;20.50;99.90
37984;DHT22;61733;50.882;4.376;2022-09-09T13:52:55;20.60;99.90
37984;DHT22;61733;50.882;4.376;2022-09-09T13:55:24;20.60;99.90
37984;DHT22;61733;50.882;4.376;2022-09-09T14:00:21;20.70;99.90
37984;DHT22;61733;50.882;4.376;2022-09-09T14:02:57;20.70;99.90
37984;DHT22;61733;50.882;4.376;2022-09-09T14:05:31;20.80;99.90
37984;DHT22;61733;50.882;4.376;2022-09-09T14:07:57;20.80;99.90
37984;DHT22;61733;50.882;4.376;2022-09-09T14:10:23;20.80;99.90
37984;DHT22;61733;50.882;4.376;2022-09-09T14:12:49;20.90;99.90
37984;DHT22;61733;50.882;4.376;2022-09-09T14:32:40;21.00;99.90
37984;DHT22;61733;50.882;4.376;2022-09-09T14:43:47;21.00;99.90
37984;DHT22;61733;50.882;4.376;2022-09-09T14:46:16;21.00;99.90
37984;DHT22;61733;50.882;4.376;2022-09-09T14:48:43;21.10;99.90
37984;DHT22;61733;50.882;4.376;2022-09-09T14:51:15;21.10;99.90
37984;DHT22;61733;50.882;4.376;2022-09-09T14:53:42;21.10;99.90
37984;DHT22;61733;50.882;4.376;2022-09-09T14:56:13;21.20;99.90
37984;DHT22;61733;50.882;4.376;2022-09-09T14:58:39;21.20;99.90
37984;DHT22;61733;50.882;4.376;2022-09-09T15:01:07;21.30;99.90
37984;DHT22;61733;50.882;4.376;2022-09-09T15:03:35;21.40;99.90
37984;DHT22;61733;50.882;4.376;2022-09-09T15:06:14;21.40;99.90
37984;DHT22;61733;50.882;4.376;2022-09-09T15:08:44;21.50;99.90
37984;DHT22;61733;50.882;4.376;2022-09-09T15:11:12;21.50;99.90
37984;DHT22;61733;50.882;4.376;2022-09-09T15:13:39;21.50;99.90
37984;DHT22;61733;50.882;4.376;2022-09-09T15:16:06;21.50;99.90
37984;DHT22;61733;50.882;4.376;2022-09-09T15:18:33;21.60;99.90
37984;DHT22;61733;50.882;4.376;2022-09-09T15:21:05;21.60;99.90
37984;DHT22;61733;50.882;4.376;2022-09-09T15:23:37;21.60;99.90
37984;DHT22;61733;50.882;4.376;2022-09-09T15:26:03;21.70;99.90
37984;DHT22;61733;50.882;4.376;2022-09-09T15:28:34;21.60;99.90
37984;DHT22;61733;50.882;4.376;2022-09-09T15:31:09;21.60;99.90
37984;DHT22;61733;50.882;4.376;2022-09-09T15:33:36;21.60;99.90
37984;DHT22;61733;50.882;4.376;2022-09-09T15:36:22;21.60;99.90
37984;DHT22;61733;50.882;4.376;2022-09-09T15:38:48;21.60;99.90
37984;DHT22;61733;50.882;4.376;2022-09-09T15:41:16;21.60;99.90
37984;DHT22;61733;50.882;4.376;2022-09-09T15:43:46;21.50;99.90
37984;DHT22;61733;50.882;4.376;2022-09-09T15:52:45;21.40;99.90
37984;DHT22;61733;50.882;4.376;2022-09-09T15:57:54;21.40;99.90
37984;DHT22;61733;50.882;4.376;2022-09-09T16:00:20;21.40;99.90
37984;DHT22;61733;50.882;4.376;2022-09-09T16:02:47;21.40;99.90
37984;DHT22;61733;50.882;4.376;2022-09-09T16:05:14;21.40;99.90
37984;DHT22;61733;50.882;4.376;2022-09-09T16:07:39;21.40;99.90
37984;DHT22;61733;50.882;4.376;2022-09-09T16:10:05;21.40;99.90
37984;DHT22;61733;50.882;4.376;2022-09-09T16:12:31;21.40;99.90
37984;DHT22;61733;50.882;4.376;2022-09-09T16:14:58;21.40;99.90
37984;DHT22;61733;50.882;4.376;2022-09-09T16:17:30;21.40;99.90
37984;DHT22;61733;50.882;4.376;2022-09-09T16:20:04;21.30;99.90
37984;DHT22;61733;50.882;4.376;2022-09-09T16:22:32;21.30;99.90
37984;DHT22;61733;50.882;4.376;2022-09-09T16:24:58;21.30;99.90
37984;DHT22;61733;50.882;4.376;2022-09-09T16:27:24;21.30;99.90
37984;DHT22;61733;50.882;4.376;2022-09-09T16:30:19;21.30;99.90
37984;DHT22;61733;50.882;4.376;2022-09-09T16:32:45;21.20;99.90
37984;DHT22;61733;50.882;4.376;2022-09-09T16:35:11;21.20;99.90
37984;DHT22;61733;50.882;4.376;2022-09-09T16:37:37;21.20;99.90
37984;DHT22;61733;50.882;4.376;2022-09-09T16:40:03;21.20;99.90
37984;DHT22;61733;50.882;4.376;2022-09-09T16:42:30;21.10;99.90
37984;DHT22;61733;50.882;4.376;2022-09-09T16:44:55;21.10;99.90
37984;DHT22;61733;50.882;4.376;2022-09-09T16:47:21;21.10;99.90
37984;DHT22;61733;50.882;4.376;2022-09-09T16:49:47;21.00;99.90
37984;DHT22;61733;50.882;4.376;2022-09-09T16:52:14;21.00;99.90
37984;DHT22;61733;50.882;4.376;2022-09-09T16:54:40;21.00;99.90
37984;DHT22;61733;50.882;4.376;2022-09-09T16:57:06;21.00;99.90
37984;DHT22;61733;50.882;4.376;2022-09-09T16:59:32;21.00;99.90
37984;DHT22;61733;50.882;4.376;2022-09-09T17:01:57;21.00;99.90
37984;DHT22;61733;50.882;4.376;2022-09-09T17:04:26;21.10;99.90
37984;DHT22;61733;50.882;4.376;2022-09-09T17:06:54;21.10;99.90
37984;DHT22;61733;50.882;4.376;2022-09-09T17:09:20;21.00;99.90
37984;DHT22;61733;50.882;4.376;2022-09-09T17:11:48;21.10;99.90
37984;DHT22;61733;50.882;4.376;2022-09-09T17:14:17;21.00;99.90
37984;DHT22;61733;50.882;4.376;2022-09-09T17:16:43;21.00;99.90
37984;DHT22;61733;50.882;4.376;2022-09-09T17:19:14;21.00;99.90
37984;DHT22;61733;50.882;4.376;2022-09-09T17:21:40;21.00;99.90
37984;DHT22;61733;50.882;4.376;2022-09-09T17:24:06;21.00;99.90
37984;DHT22;61733;50.882;4.376;2022-09-09T17:26:35;21.00;99.90
37984;DHT22;61733;50.882;4.376;2022-09-09T17:29:04;20.90;99.90
37984;DHT22;61733;50.882;4.376;2022-09-09T17:31:30;20.90;99.90
37984;DHT22;61733;50.882;4.376;2022-09-09T17:33:58;20.90;99.90
37984;DHT22;61733;50.882;4.376;2022-09-09T17:36:30;20.80;99.90
37984;DHT22;61733;50.882;4.376;2022-09-09T17:38:57;20.80;99.90
37984;DHT22;61733;50.882;4.376;2022-09-09T17:41:25;20.70;99.90
37984;DHT22;61733;50.882;4.376;2022-09-09T17:43:52;20.70;99.90
37984;DHT22;61733;50.882;4.376;2022-09-09T17:46:38;20.60;99.90
37984;DHT22;61733;50.882;4.376;2022-09-09T17:49:11;20.60;99.90
37984;DHT22;61733;50.882;4.376;2022-09-09T17:51:37;20.50;99.90
37984;DHT22;61733;50.882;4.376;2022-09-09T17:54:07;20.50;99.90
37984;DHT22;61733;50.882;4.376;2022-09-09T17:56:33;20.40;99.90
37984;DHT22;61733;50.882;4.376;2022-09-09T17:59:01;20.40;99.90
37984;DHT22;61733;50.882;4.376;2022-09-09T18:01:30;20.30;99.90
37984;DHT22;61733;50.882;4.376;2022-09-09T18:03:58;20.30;99.90
37984;DHT22;61733;50.882;4.376;2022-09-09T18:06:28;20.20;99.90
37984;DHT22;61733;50.882;4.376;2022-09-09T18:08:57;20.20;99.90
37984;DHT22;61733;50.882;4.376;2022-09-09T18:11:26;20.10;99.90
37984;DHT22;61733;50.882;4.376;2022-09-09T18:13:58;20.10;99.90
37984;DHT22;61733;50.882;4.376;2022-09-09T18:16:29;20.00;99.90
37984;DHT22;61733;50.882;4.376;2022-09-09T18:18:56;20.00;99.90
37984;DHT22;61733;50.882;4.376;2022-09-09T18:21:29;19.90;99.90
37984;DHT22;61733;50.882;4.376;2022-09-09T18:23:59;19.90;99.90
37984;DHT22;61733;50.882;4.376;2022-09-09T18:26:27;19.90;99.90
37984;DHT22;61733;50.882;4.376;2022-09-09T18:28:55;19.80;99.90
37984;DHT22;61733;50.882;4.376;2022-09-09T18:31:22;19.80;99.90
37984;DHT22;61733;50.882;4.376;2022-09-09T18:33:50;19.70;99.90
37984;DHT22;61733;50.882;4.376;2022-09-09T18:36:23;19.70;99.90
37984;DHT22;61733;50.882;4.376;2022-09-09T18:38:50;19.70;99.90
37984;DHT22;61733;50.882;4.376;2022-09-09T18:41:28;19.70;99.90
37984;DHT22;61733;50.882;4.376;2022-09-09T18:43:57;19.60;99.90
37984;DHT22;61733;50.882;4.376;2022-09-09T18:46:25;19.50;99.90
37984;DHT22;61733;50.882;4.376;2022-09-09T18:48:51;19.50;99.90
37984;DHT22;61733;50.882;4.376;2022-09-09T18:51:20;19.50;99.90
37984;DHT22;61733;50.882;4.376;2022-09-09T18:53:51;19.40;99.90